createdAt,value
2023-05-02T00:02:06.821Z,99871.47
2023-05-02T00:04:34.778Z,99872.66
2023-05-02T00:07:02.794Z,99870.56
2023-05-02T00:09:30.754Z,99879.16
2023-05-02T00:11:59.855Z,99875.13
2023-05-02T00:14:27.548Z,99879.59
2023-05-02T00:16:55.747Z,99889.41
2023-05-02T00:19:23.522Z,99884.97
2023-05-02T00:21:51.362Z,99889.47
2023-05-02T00:24:19.455Z,99891.31
2023-05-02T00:26:47.556Z,99884.19
2023-05-02T00:29:16.641Z,99884.38
2023-05-02T00:31:44.378Z,99887.19
2023-05-02T00:34:12.103Z,99887.03
2023-05-02T00:36:40.084Z,99886.84
2023-05-02T00:39:07.747Z,99892.97
2023-05-02T00:41:35.662Z,99887.38
2023-05-02T00:44:03.642Z,99887.72
2023-05-02T00:46:32.723Z,99889.25
2023-05-02T00:49:01.560Z,99878.13
2023-05-02T00:51:29.283Z,99882.81
2023-05-02T00:53:57.782Z,99876.88
2023-05-02T00:56:25.511Z,99879.69
2023-05-02T00:58:53.628Z,99875.88
2023-05-02T01:01:38.155Z,99879.19
2023-05-02T01:04:21.378Z,99890.78
2023-05-02T01:07:01.103Z,99884.84
2023-05-02T01:09:40.994Z,99892.44
2023-05-02T01:12:17.405Z,99887.16
2023-05-02T01:14:51.931Z,99887.81
2023-05-02T01:17:24.103Z,99901.38
2023-05-02T01:19:56.076Z,99900.72
2023-05-02T01:22:26.696Z,99905.50
2023-05-02T01:25:04.638Z,99903.34
2023-05-02T01:27:38.385Z,99902.38
2023-05-02T01:30:09.194Z,99901.34
2023-05-02T01:32:40.801Z,99898.22
2023-05-02T01:35:10.185Z,99907.63
2023-05-02T01:37:39.146Z,99905.94
2023-05-02T01:40:09.726Z,99910.91
2023-05-02T01:42:38.322Z,99914.34
2023-05-02T01:45:09.769Z,99917.16
2023-05-02T01:47:39.104Z,99920.16
2023-05-02T01:50:10.370Z,99921.47
2023-05-02T01:52:38.416Z,99929.41
2023-05-02T01:55:10.381Z,99923.44
2023-05-02T01:57:41.134Z,99930.69
2023-05-02T02:00:12.039Z,99935.47
2023-05-02T02:02:42.032Z,99934.41
2023-05-02T02:05:11.639Z,99942.34
2023-05-02T02:07:39.618Z,99944.00
2023-05-02T02:10:08.450Z,99950.13
2023-05-02T02:12:41.352Z,99946.50
2023-05-02T02:15:18.460Z,99958.75
2023-05-02T02:17:50.788Z,99959.19
2023-05-02T02:20:20.301Z,99953.75
2023-05-02T02:22:49.449Z,99967.22
2023-05-02T02:25:18.672Z,99964.75
2023-05-02T02:27:46.342Z,99958.25
2023-05-02T02:30:16.496Z,99963.53
2023-05-02T02:32:44.355Z,99961.22
2023-05-02T02:35:12.623Z,99962.16
2023-05-02T02:37:46.856Z,99970.63
2023-05-02T02:40:23.042Z,99974.09
2023-05-02T02:42:58.767Z,99975.06
2023-05-02T02:45:36.868Z,99964.66
2023-05-02T02:48:18.303Z,99974.91
2023-05-02T02:50:56.081Z,99970.28
2023-05-02T02:53:28.896Z,99972.94
2023-05-02T02:56:01.548Z,99977.09
2023-05-02T02:58:37.910Z,99980.34
2023-05-02T03:01:12.804Z,99978.19
2023-05-02T03:03:43.439Z,99982.50
2023-05-02T03:06:11.180Z,99982.00
2023-05-02T03:08:42.124Z,99987.91
2023-05-02T03:11:09.966Z,99993.72
2023-05-02T03:13:38.407Z,100003.00
2023-05-02T03:16:37.094Z,99998.38
2023-05-02T03:19:05.140Z,100009.63
2023-05-02T03:21:32.861Z,100003.16
2023-05-02T03:24:01.576Z,100009.81
2023-05-02T03:26:29.950Z,100006.69
2023-05-02T03:28:58.087Z,100008.16
2023-05-02T03:31:26.805Z,100008.78
2023-05-02T03:33:56.073Z,100008.63
2023-05-02T03:36:23.685Z,100010.94
2023-05-02T03:38:51.752Z,100017.47
2023-05-02T03:41:20.894Z,100011.84
2023-05-02T03:43:48.655Z,100018.47
2023-05-02T03:46:16.447Z,100026.44
2023-05-02T03:48:46.418Z,100031.75
2023-05-02T03:51:15.616Z,100029.44
2023-05-02T03:53:43.507Z,100030.50
2023-05-02T03:56:11.121Z,100033.34
2023-05-02T03:58:38.810Z,100042.25
2023-05-02T04:01:15.496Z,100041.63
2023-05-02T04:03:43.573Z,100049.13
2023-05-02T04:06:13.096Z,100047.03
2023-05-02T04:08:42.516Z,100054.13
2023-05-02T04:11:10.148Z,100067.88
2023-05-02T04:13:37.808Z,100061.78
2023-05-02T04:16:06.078Z,100072.19
2023-05-02T04:18:33.967Z,100069.75
2023-05-02T04:21:01.669Z,100063.31
2023-05-02T04:23:29.429Z,100076.78
2023-05-02T04:25:58.872Z,100081.56
2023-05-02T04:28:26.547Z,100076.97
2023-05-02T04:30:54.472Z,100071.34
2023-05-02T04:33:22.165Z,100078.63
2023-05-02T04:35:50.218Z,100071.53
2023-05-02T04:38:18.099Z,100087.13
2023-05-02T04:40:45.932Z,100081.00
2023-05-02T04:43:15.012Z,100087.81
2023-05-02T04:45:42.704Z,100088.84
2023-05-02T04:48:10.511Z,100092.97
2023-05-02T04:50:38.193Z,100096.97
2023-05-02T04:53:06.376Z,100101.59
2023-05-02T04:55:34.103Z,100111.41
2023-05-02T04:58:01.729Z,100112.84
2023-05-02T05:00:30.864Z,100121.00
2023-05-02T05:03:00.137Z,100125.84
2023-05-02T05:05:29.389Z,100117.91
2023-05-02T05:07:57.320Z,100128.69
2023-05-02T05:10:25.138Z,100130.69
2023-05-02T05:12:53.398Z,100138.78
2023-05-02T05:15:22.470Z,100139.63
2023-05-02T05:17:51.566Z,100147.91
2023-05-02T05:20:19.909Z,100151.38
2023-05-02T05:22:47.994Z,100148.38
2023-05-02T05:25:16.002Z,100155.53
2023-05-02T05:27:43.670Z,100162.97
2023-05-02T05:30:12.292Z,100173.25
2023-05-02T05:32:40.086Z,100169.28
2023-05-02T05:35:10.055Z,100175.56
2023-05-02T05:37:39.458Z,100174.59
2023-05-02T05:40:08.651Z,100175.75
2023-05-02T05:43:00.497Z,100174.09
2023-05-02T05:45:28.181Z,100174.56
2023-05-02T05:47:55.986Z,100192.16
2023-05-02T05:50:25.214Z,100190.66
2023-05-02T05:52:52.924Z,100193.47
2023-05-02T05:55:20.562Z,100195.75
2023-05-02T05:57:48.181Z,100202.41
2023-05-02T06:00:17.035Z,100205.16
2023-05-02T06:02:44.755Z,100211.63
2023-05-02T06:05:12.635Z,100218.16
2023-05-02T06:07:41.719Z,100217.03
2023-05-02T06:10:10.886Z,100222.28
2023-05-02T06:12:38.655Z,100232.25
2023-05-02T06:15:07.263Z,100231.94
2023-05-02T06:17:35.092Z,100226.44
2023-05-02T06:20:03.030Z,100235.53
2023-05-02T06:22:30.979Z,100240.66
2023-05-02T06:25:00.878Z,100232.41
2023-05-02T06:27:28.851Z,100240.03
2023-05-02T06:29:56.700Z,100242.72
2023-05-02T06:32:24.443Z,100241.91
2023-05-02T06:34:52.253Z,100256.28
2023-05-02T06:37:20.020Z,100252.56
2023-05-02T06:39:47.730Z,100250.72
2023-05-02T06:42:17.105Z,100251.91
2023-05-02T06:44:44.774Z,100251.06
2023-05-02T06:47:12.470Z,100255.38
2023-05-02T06:49:40.341Z,100257.16
2023-05-02T06:52:08.176Z,100256.25
2023-05-02T06:54:35.964Z,100266.97
2023-05-02T06:57:04.155Z,100278.34
2023-05-02T06:59:33.358Z,100277.28
2023-05-02T07:02:03.051Z,100276.44
2023-05-02T07:04:32.915Z,100280.06
2023-05-02T07:07:01.139Z,100278.81
2023-05-02T07:09:29.044Z,100286.09
2023-05-02T07:11:57.083Z,100280.72
2023-05-02T07:14:24.880Z,100286.81
2023-05-02T07:16:54.923Z,100286.31
2023-05-02T07:19:22.760Z,100283.53
2023-05-02T07:21:50.495Z,100284.16
2023-05-02T07:24:18.385Z,100289.56
2023-05-02T07:26:46.067Z,100287.31
2023-05-02T07:29:13.782Z,100285.41
2023-05-02T07:31:41.526Z,100294.06
2023-05-02T07:34:10.618Z,100298.56
2023-05-02T07:36:38.266Z,100286.75
2023-05-02T07:39:06.196Z,100284.84
2023-05-02T07:41:34.144Z,100291.94
2023-05-02T07:44:01.818Z,100290.25
2023-05-02T07:46:29.506Z,100294.84
2023-05-02T07:48:57.257Z,100293.81
2023-05-02T07:51:26.852Z,100291.84
2023-05-02T07:53:58.307Z,100295.88
2023-05-02T07:56:26.076Z,100301.69
2023-05-02T07:58:54.169Z,100301.50
2023-05-02T08:01:21.977Z,100306.81
2023-05-02T08:03:50.037Z,100311.16
2023-05-02T08:06:18.153Z,100309.78
2023-05-02T08:08:47.575Z,100313.94
2023-05-02T08:11:15.696Z,100309.03
2023-05-02T08:13:43.509Z,100310.81
2023-05-02T08:16:11.364Z,100307.19
2023-05-02T08:18:39.172Z,100312.78
2023-05-02T08:21:07.100Z,100308.25
2023-05-02T08:23:35.036Z,100314.19
2023-05-02T08:26:04.530Z,100316.00
2023-05-02T08:28:32.295Z,100311.13
2023-05-02T08:31:00.006Z,100320.25
2023-05-02T08:33:27.856Z,100327.31
2023-05-02T08:35:55.694Z,100331.25
2023-05-02T08:38:23.601Z,100335.66
2023-05-02T08:40:51.468Z,100333.00
2023-05-02T08:43:21.195Z,100329.25
2023-05-02T08:45:51.179Z,100335.91
2023-05-02T08:48:20.321Z,100333.88
2023-05-02T08:50:49.600Z,100335.66
2023-05-02T08:53:19.052Z,100338.47
2023-05-02T08:55:47.702Z,100340.66
2023-05-02T08:58:16.302Z,100346.97
2023-05-02T09:00:50.935Z,100350.16
2023-05-02T09:03:30.281Z,100350.47
2023-05-02T09:06:06.319Z,100360.63
2023-05-02T09:08:34.759Z,100356.38
2023-05-02T09:11:03.852Z,100357.09
2023-05-02T09:13:33.168Z,100362.09
2023-05-02T09:16:03.426Z,100367.19
2023-05-02T09:18:33.965Z,100366.19
2023-05-02T09:21:02.965Z,100363.41
2023-05-02T09:23:35.329Z,100370.28
2023-05-02T09:26:03.372Z,100367.81
2023-05-02T09:28:42.168Z,100368.28
2023-05-02T09:31:16.830Z,100376.84
2023-05-02T09:33:46.841Z,100379.94
2023-05-02T09:36:16.148Z,100380.69
2023-05-02T09:38:45.048Z,100383.09
2023-05-02T09:41:12.863Z,100385.94
2023-05-02T09:43:41.348Z,100385.66
2023-05-02T09:46:11.916Z,100382.44
2023-05-02T09:48:56.876Z,100384.09
2023-05-02T09:51:25.787Z,100384.47
2023-05-02T09:53:54.103Z,100390.13
2023-05-02T09:56:23.357Z,100379.97
2023-05-02T09:58:51.790Z,100387.56
2023-05-02T10:01:21.586Z,100388.25
2023-05-02T10:03:50.232Z,100388.81
2023-05-02T10:06:18.352Z,100402.19
2023-05-02T10:08:47.621Z,100400.78
2023-05-02T10:11:15.772Z,100408.75
2023-05-02T10:13:44.943Z,100408.56
2023-05-02T10:16:14.199Z,100410.53
2023-05-02T10:18:49.297Z,100409.13
2023-05-02T10:21:19.126Z,100409.84
2023-05-02T10:23:47.798Z,100407.34
2023-05-02T10:26:17.541Z,100403.13
2023-05-02T10:28:45.794Z,100412.00
2023-05-02T10:31:14.942Z,100407.13
2023-05-02T10:33:44.222Z,100398.81
2023-05-02T10:36:14.059Z,100402.03
2023-05-02T10:38:43.184Z,100394.75
2023-05-02T10:41:15.161Z,100388.84
2023-05-02T10:43:48.989Z,100383.88
2023-05-02T10:46:33.183Z,100397.09
2023-05-02T10:49:07.271Z,100375.09
2023-05-02T10:51:36.441Z,100376.53
2023-05-02T10:54:23.439Z,100380.47
2023-05-02T10:57:06.086Z,100387.34
2023-05-02T10:59:36.927Z,100390.47
2023-05-02T11:02:07.066Z,100378.44
2023-05-02T11:05:10.322Z,100376.69
2023-05-02T11:07:39.025Z,100373.50
2023-05-02T11:10:27.437Z,100372.47
2023-05-02T11:12:56.632Z,100382.75
2023-05-02T11:15:57.991Z,100379.16
2023-05-02T11:18:25.740Z,100380.78
2023-05-02T11:21:29.952Z,100373.38
2023-05-02T11:24:35.045Z,100377.78
2023-05-02T11:27:38.521Z,100374.81
2023-05-02T11:30:07.653Z,100373.44
2023-05-02T11:33:18.137Z,100377.16
2023-05-02T11:35:47.544Z,100373.91
2023-05-02T11:38:18.859Z,100375.41
2023-05-02T11:41:00.230Z,100371.09
2023-05-02T11:43:31.753Z,100366.44
2023-05-02T11:46:02.204Z,100365.91
2023-05-02T11:48:31.633Z,100370.81
2023-05-02T11:51:03.419Z,100365.31
2023-05-02T11:53:33.128Z,100357.69
2023-05-02T11:56:02.191Z,100353.97
2023-05-02T11:58:32.912Z,100361.59
2023-05-02T12:01:12.381Z,100351.28
2023-05-02T12:03:40.732Z,100355.00
2023-05-02T12:06:13.079Z,100358.72
2023-05-02T12:08:43.836Z,100360.38
2023-05-02T12:11:14.618Z,100357.50
2023-05-02T12:13:47.083Z,100348.06
2023-05-02T12:16:15.363Z,100376.84
2023-05-02T12:18:44.055Z,100369.81
2023-05-02T12:21:11.913Z,100376.47
2023-05-02T12:23:42.925Z,100382.31
2023-05-02T12:26:22.153Z,100388.50
2023-05-02T12:28:51.380Z,100387.38
2023-05-02T12:31:19.711Z,100388.59
2023-05-02T12:33:50.182Z,100383.59
2023-05-02T12:36:18.495Z,100384.25
2023-05-02T12:38:52.994Z,100398.50
2023-05-02T12:41:31.254Z,100390.00
2023-05-02T12:44:01.024Z,100382.44
2023-05-02T12:46:29.340Z,100388.22
2023-05-02T12:49:04.002Z,100380.81
2023-05-02T12:51:32.911Z,100377.91
2023-05-02T12:54:02.327Z,100373.09
2023-05-02T12:56:33.080Z,100370.00
2023-05-02T12:59:05.683Z,100377.47
2023-05-02T13:01:35.211Z,100372.19
2023-05-02T13:04:03.736Z,100364.72
2023-05-02T13:06:32.016Z,100368.19
2023-05-02T13:09:00.108Z,100368.41
2023-05-02T13:11:29.438Z,100358.16
2023-05-02T13:13:57.183Z,100355.16
2023-05-02T13:16:25.972Z,100358.00
2023-05-02T13:18:54.217Z,100361.09
2023-05-02T13:21:22.018Z,100358.47
2023-05-02T13:23:50.529Z,100358.69
2023-05-02T13:26:18.475Z,100365.53
2023-05-02T13:28:47.579Z,100356.56
2023-05-02T13:31:15.263Z,100351.59
2023-05-02T13:33:43.114Z,100356.34
2023-05-02T13:36:10.950Z,100352.34
2023-05-02T13:38:38.786Z,100357.00
2023-05-02T13:41:06.758Z,100348.38
2023-05-02T13:43:34.631Z,100356.59
2023-05-02T13:46:03.757Z,100358.09
2023-05-02T13:48:31.492Z,100356.44
2023-05-02T13:50:59.065Z,100359.75
2023-05-02T13:53:26.712Z,100362.84
2023-05-02T13:55:54.404Z,100357.47
2023-05-02T13:58:22.210Z,100353.75
2023-05-02T14:00:49.823Z,100355.03
2023-05-02T14:03:20.806Z,100361.03
2023-05-02T14:05:48.475Z,100366.34
2023-05-02T14:08:18.373Z,100361.78
2023-05-02T14:10:46.239Z,100366.75
2023-05-02T14:13:13.812Z,100375.25
2023-05-02T14:15:41.515Z,100379.16
2023-05-02T14:18:09.417Z,100377.09
2023-05-02T14:20:38.437Z,100375.03
2023-05-02T14:23:07.585Z,100372.56
2023-05-02T14:25:35.458Z,100368.41
2023-05-02T14:28:03.537Z,100370.06
2023-05-02T14:30:32.121Z,100377.59
2023-05-02T14:32:59.828Z,100379.53
2023-05-02T14:35:27.415Z,100375.66
2023-05-02T14:37:56.690Z,100386.09
2023-05-02T14:40:24.400Z,100378.09
2023-05-02T14:42:52.215Z,100384.91
2023-05-02T14:45:20.212Z,100386.75
2023-05-02T14:47:48.119Z,100378.84
2023-05-02T14:50:16.115Z,100377.03
2023-05-02T14:52:46.178Z,100380.13
2023-05-02T14:55:15.248Z,100382.81
2023-05-02T14:57:43.150Z,100383.88
2023-05-02T15:00:11.826Z,100378.69
2023-05-02T15:02:39.712Z,100374.97
2023-05-02T15:05:12.451Z,100364.88
2023-05-02T15:07:40.467Z,100369.97
2023-05-02T15:10:09.289Z,100368.63
2023-05-02T15:12:38.307Z,100381.53
2023-05-02T15:15:06.855Z,100380.94
2023-05-02T15:17:34.639Z,100380.94
2023-05-02T15:20:02.432Z,100376.25
2023-05-02T15:22:30.603Z,100373.38
2023-05-02T15:24:58.300Z,100379.59
2023-05-02T15:27:25.963Z,100382.44
2023-05-02T15:29:54.998Z,100380.41
2023-05-02T15:32:22.745Z,100375.41
2023-05-02T15:34:50.581Z,100381.00
2023-05-02T15:37:18.338Z,100389.00
2023-05-02T15:39:46.104Z,100381.56
2023-05-02T15:42:14.599Z,100386.91
2023-05-02T15:44:42.753Z,100385.53
2023-05-02T15:47:11.984Z,100380.59
2023-05-02T15:49:40.136Z,100393.16
2023-05-02T15:52:07.791Z,100390.44
2023-05-02T15:54:35.493Z,100388.16
2023-05-02T15:57:03.668Z,100398.63
2023-05-02T15:59:31.317Z,100391.88
2023-05-02T16:01:58.984Z,100387.59
2023-05-02T16:04:29.052Z,100387.81
2023-05-02T16:06:56.784Z,100398.53
2023-05-02T16:09:24.584Z,100395.84
2023-05-02T16:11:52.223Z,100398.31
2023-05-02T16:14:23.807Z,100399.34
2023-05-02T16:16:51.583Z,100391.72
2023-05-02T16:19:19.209Z,100395.47
2023-05-02T16:21:48.502Z,100393.16
2023-05-02T16:24:16.261Z,100387.63
2023-05-02T16:26:43.918Z,100386.97
2023-05-02T16:29:11.557Z,100401.09
2023-05-02T16:31:39.302Z,100396.38
2023-05-02T16:34:07.066Z,100392.19
2023-05-02T16:36:34.742Z,100404.75
2023-05-02T16:39:03.808Z,100398.47
2023-05-02T16:41:31.419Z,100395.56
2023-05-02T16:43:59.081Z,100403.66
2023-05-02T16:46:26.755Z,100397.47
2023-05-02T16:48:54.534Z,100398.94
2023-05-02T16:51:22.662Z,100395.19
2023-05-02T16:53:50.351Z,100398.44
2023-05-02T16:56:19.359Z,100400.97
2023-05-02T16:58:47.032Z,100406.56
2023-05-02T17:01:14.736Z,100401.59
2023-05-02T17:03:42.572Z,100410.00
2023-05-02T17:06:10.354Z,100410.47
2023-05-02T17:08:38.125Z,100408.72
2023-05-02T17:11:07.660Z,100411.34
2023-05-02T17:13:36.753Z,100416.88
2023-05-02T17:16:04.645Z,100421.09
2023-05-02T17:18:34.214Z,100422.50
2023-05-02T17:21:03.931Z,100427.31
2023-05-02T17:23:31.997Z,100426.69
2023-05-02T17:25:59.744Z,100431.25
2023-05-02T17:28:27.464Z,100442.44
2023-05-02T17:30:59.224Z,100443.69
2023-05-02T17:33:27.482Z,100439.44
2023-05-02T17:35:56.930Z,100443.31
2023-05-02T17:38:24.709Z,100445.44
2023-05-02T17:40:52.677Z,100446.31
2023-05-02T17:43:45.310Z,100454.66
2023-05-02T17:46:14.319Z,100456.91
2023-05-02T17:48:44.056Z,100464.50
2023-05-02T17:51:12.453Z,100459.59
2023-05-02T17:53:40.448Z,100458.06
2023-05-02T17:56:08.360Z,100464.69
2023-05-02T17:58:37.373Z,100464.84
2023-05-02T18:01:09.074Z,100472.56
2023-05-02T18:03:39.500Z,100468.97
2023-05-02T18:06:08.082Z,100469.09
2023-05-02T18:08:36.175Z,100471.28
2023-05-02T18:11:04.154Z,100479.66
2023-05-02T18:13:32.301Z,100478.88
2023-05-02T18:16:01.499Z,100486.88
2023-05-02T18:18:29.554Z,100490.19
2023-05-02T18:20:58.776Z,100488.63
2023-05-02T18:23:26.628Z,100486.84
2023-05-02T18:25:54.478Z,100498.75
2023-05-02T18:28:22.646Z,100500.91
2023-05-02T18:30:50.477Z,100503.69
2023-05-02T18:33:18.211Z,100507.78
2023-05-02T18:35:47.620Z,100510.25
2023-05-02T18:38:17.530Z,100514.84
2023-05-02T18:40:45.350Z,100522.34
2023-05-02T18:43:13.235Z,100517.69
2023-05-02T18:45:41.214Z,100517.41
2023-05-02T18:48:09.074Z,100526.97
2023-05-02T18:50:37.014Z,100522.84
2023-05-02T18:53:05.060Z,100531.00
2023-05-02T18:55:34.670Z,100541.34
2023-05-02T18:58:02.470Z,100555.56
2023-05-02T19:00:31.591Z,100552.56
2023-05-02T19:02:59.887Z,100555.53
2023-05-02T19:05:28.087Z,100557.03
2023-05-02T19:07:56.113Z,100563.22
2023-05-02T19:10:23.956Z,100569.09
2023-05-02T19:12:52.959Z,100579.22
2023-05-02T19:15:20.759Z,100575.41
2023-05-02T19:17:48.582Z,100578.56
2023-05-02T19:20:16.549Z,100576.53
2023-05-02T19:22:46.103Z,100581.72
2023-05-02T19:25:14.135Z,100582.25
2023-05-02T19:27:42.291Z,100590.38
2023-05-02T19:30:13.616Z,100596.84
2023-05-02T19:32:41.484Z,100599.66
2023-05-02T19:35:09.867Z,100600.16
2023-05-02T19:37:37.588Z,100602.50
2023-05-02T19:40:06.105Z,100604.81
2023-05-02T19:42:33.847Z,100616.44
2023-05-02T19:45:01.648Z,100625.56
2023-05-02T19:47:32.574Z,100627.41
2023-05-02T19:50:00.343Z,100637.53
2023-05-02T19:52:28.220Z,100633.38
2023-05-02T19:54:55.944Z,100635.25
2023-05-02T19:57:23.843Z,100647.06
2023-05-02T19:59:51.525Z,100639.59
2023-05-02T20:02:19.334Z,100647.56
2023-05-02T20:04:48.397Z,100644.38
2023-05-02T20:07:16.070Z,100642.00
2023-05-02T20:09:43.737Z,100642.19
2023-05-02T20:12:11.464Z,100648.78
2023-05-02T20:14:40.772Z,100648.69
2023-05-02T20:17:08.854Z,100654.78
2023-05-02T20:19:36.597Z,100647.19
2023-05-02T20:22:05.647Z,100645.69
2023-05-02T20:24:33.317Z,100635.78
2023-05-02T20:27:01.306Z,100636.94
2023-05-02T20:29:29.028Z,100643.84
2023-05-02T20:31:56.797Z,100642.81
2023-05-02T20:34:24.510Z,100652.38
2023-05-02T20:36:52.536Z,100659.44
2023-05-02T20:39:21.845Z,100660.34
2023-05-02T20:41:50.006Z,100662.28
2023-05-02T20:44:18.652Z,100669.31
2023-05-02T20:46:46.389Z,100672.03
2023-05-02T20:49:14.156Z,100672.91
2023-05-02T20:51:41.945Z,100672.84
2023-05-02T20:54:09.590Z,100678.88
2023-05-02T20:56:38.626Z,100679.56
2023-05-02T20:59:06.332Z,100677.09
2023-05-02T21:01:34.350Z,100681.75
2023-05-02T21:04:03.412Z,100689.13
2023-05-02T21:06:31.416Z,100684.28
2023-05-02T21:08:59.175Z,100693.09
2023-05-02T21:11:26.874Z,100687.88
2023-05-02T21:13:55.834Z,100695.50
2023-05-02T21:16:23.817Z,100706.72
2023-05-02T21:18:51.576Z,100704.69
2023-05-02T21:21:19.496Z,100711.03
2023-05-02T21:23:47.292Z,100706.56
2023-05-02T21:26:14.940Z,100711.19
2023-05-02T21:28:42.636Z,100714.81
2023-05-02T21:31:11.895Z,100714.06
2023-05-02T21:33:39.566Z,100715.94
2023-05-02T21:36:07.705Z,100717.56
2023-05-02T21:38:35.455Z,100715.31
2023-05-02T21:41:04.308Z,100720.22
2023-05-02T21:43:32.764Z,100718.75
2023-05-02T21:46:01.015Z,100717.19
2023-05-02T21:48:30.050Z,100719.78
2023-05-02T21:50:57.658Z,100725.50
2023-05-02T21:53:26.978Z,100724.47
2023-05-02T21:55:54.615Z,100722.00
2023-05-02T21:58:22.246Z,100714.03
2023-05-02T22:00:50.056Z,100716.13
2023-05-02T22:03:17.793Z,100715.84
2023-05-02T22:05:49.761Z,100721.72
2023-05-02T22:08:18.006Z,100716.44
2023-05-02T22:10:45.959Z,100715.19
2023-05-02T22:13:15.828Z,100716.59
2023-05-02T22:15:45.309Z,100709.69
2023-05-02T22:18:13.819Z,100708.44
2023-05-02T22:20:41.933Z,100710.25
2023-05-02T22:23:12.665Z,100717.94
2023-05-02T22:25:42.344Z,100710.63
2023-05-02T22:28:11.471Z,100716.13
2023-05-02T22:30:39.769Z,100725.50
2023-05-02T22:33:08.435Z,100721.50
2023-05-02T22:35:37.296Z,100732.75
2023-05-02T22:38:05.715Z,100731.78
2023-05-02T22:40:34.700Z,100730.50
2023-05-02T22:43:02.558Z,100737.91
2023-05-02T22:45:30.484Z,100735.53
2023-05-02T22:47:58.180Z,100740.91
2023-05-02T22:50:26.468Z,100738.78
2023-05-02T22:52:56.798Z,100739.34
2023-05-02T22:55:24.863Z,100745.63
2023-05-02T22:57:53.892Z,100743.16
2023-05-02T23:00:22.494Z,100741.28
2023-05-02T23:02:50.448Z,100752.44
2023-05-02T23:05:18.222Z,100746.88
2023-05-02T23:07:45.853Z,100741.19
2023-05-02T23:10:13.482Z,100743.28
2023-05-02T23:12:41.840Z,100754.97
2023-05-02T23:15:11.892Z,100746.91
2023-05-02T23:17:41.286Z,100747.47
2023-05-02T23:20:11.281Z,100749.94
2023-05-02T23:22:45.312Z,100742.31
2023-05-02T23:25:13.970Z,100748.31
2023-05-02T23:27:41.585Z,100748.28
2023-05-02T23:30:11.467Z,100759.53
2023-05-02T23:32:39.659Z,100755.66
2023-05-02T23:35:08.475Z,100749.25
2023-05-02T23:37:36.113Z,100753.31
2023-05-02T23:40:04.194Z,100745.50
2023-05-02T23:42:34.218Z,100745.22
2023-05-02T23:45:01.917Z,100751.50
2023-05-02T23:47:30.943Z,100748.00
2023-05-02T23:49:58.686Z,100750.66
2023-05-02T23:52:26.765Z,100750.81
2023-05-02T23:54:54.658Z,100748.75
2023-05-02T23:57:22.307Z,100749.41
2023-05-02T23:59:50.052Z,100744.66
